Time;durP1;ratioP1;P1;durP2;ratioP2;P2;SDS_P1;SDS_P2;PMS_P1;PMS_P2;Temp;Humidity;BMP_temperature;BMP_pressure;BME280_temperature;BME280_humidity;BME280_pressure;Samples;Min_cycle;Max_cycle;Signal;HPM_P1;HPM_P2
2024/01/24 00:00:09;;;;;;;8.90;3.30;;;;;;;6.10;100.00;100554.00;7346070;19;20920;-41
2024/01/24 00:02:41;;;;;;;2.50;1.30;;;;;;;6.13;100.00;100556.72;7324247;19;20396;-40
2024/01/24 00:05:11;;;;;;;5.50;1.97;;;;;;;6.21;100.00;100530.75;7322360;19;20438;-41
2024/01/24 00:07:40;;;;;;;13.87;5.70;;;;;;;6.21;100.00;100524.75;7344128;19;20402;-42
2024/01/24 00:10:11;;;;;;;3.50;1.30;;;;;;;6.30;100.00;100511.59;7324111;19;20419;-41
2024/01/24 00:12:42;;;;;;;3.90;2.47;;;;;;;6.31;100.00;100488.59;7344824;19;20454;-40
2024/01/24 00:15:12;;;;;;;3.57;1.60;;;;;;;6.35;100.00;100475.16;7322317;19;20438;-42
2024/01/24 00:17:45;;;;;;;5.03;3.10;;;;;;;6.44;100.00;100455.94;7342592;19;20422;-40
2024/01/24 00:20:15;;;;;;;5.57;2.60;;;;;;;6.49;100.00;100449.38;7322753;19;21358;-41
2024/01/24 00:22:44;;;;;;;3.83;2.13;;;;;;;6.51;100.00;100455.47;7345972;19;20427;-40
2024/01/24 00:25:14;;;;;;;5.27;2.83;;;;;;;6.57;100.00;100442.97;7322562;19;20487;-42
2024/01/24 00:27:44;;;;;;;5.50;3.30;;;;;;;6.69;100.00;100434.16;7344961;19;20406;-40
2024/01/24 00:30:14;;;;;;;5.97;1.83;;;;;;;6.71;100.00;100407.81;7322179;19;20456;-40
2024/01/24 00:32:46;;;;;;;3.60;2.10;;;;;;;6.79;100.00;100413.34;7340115;19;20403;-40
2024/01/24 00:35:16;;;;;;;3.00;1.40;;;;;;;6.86;100.00;100394.91;7320629;19;20955;-40
2024/01/24 00:37:46;;;;;;;6.83;2.47;;;;;;;6.95;100.00;100389.34;7342565;19;20497;-40
2024/01/24 00:40:15;;;;;;;7.53;2.80;;;;;;;6.99;100.00;100391.25;7314903;19;20454;-40
2024/01/24 00:42:45;;;;;;;5.40;3.93;;;;;;;7.04;100.00;100383.81;7344670;19;20407;-39
2024/01/24 00:45:15;;;;;;;4.33;2.20;;;;;;;7.12;100.00;100381.59;7320432;19;20488;-42
2024/01/24 00:47:47;;;;;;;6.33;3.80;;;;;;;7.21;100.00;100371.81;7339497;19;20440;-40
2024/01/24 00:50:17;;;;;;;3.47;2.00;;;;;;;7.22;100.00;100373.56;7318643;19;20510;-40
2024/01/24 00:52:51;;;;;;;6.17;3.93;;;;;;;7.28;100.00;100373.00;7342896;19;20399;-40
2024/01/24 00:55:21;;;;;;;5.40;2.77;;;;;;;7.32;100.00;100372.31;7320722;19;20420;-40
2024/01/24 00:57:51;;;;;;;11.93;4.47;;;;;;;7.36;100.00;100381.94;7342125;19;20438;-39
2024/01/24 01:00:21;;;;;;;6.73;3.03;;;;;;;7.44;100.00;100377.19;7319565;19;20425;-39
2024/01/24 01:02:53;;;;;;;8.47;4.77;;;;;;;7.49;100.00;100364.56;7343923;19;20443;-40
2024/01/24 01:05:22;;;;;;;3.43;2.47;;;;;;;7.52;100.00;100346.75;7319131;19;20944;-40
2024/01/24 01:07:52;;;;;;;6.10;3.20;;;;;;;7.57;100.00;100352.97;7343624;19;20430;-40
2024/01/24 01:10:22;;;;;;;4.13;2.03;;;;;;;7.67;100.00;100349.16;7321183;19;20426;-41
2024/01/24 01:12:52;;;;;;;4.07;2.50;;;;;;;7.68;100.00;100331.25;7344817;19;20428;-41
2024/01/24 01:15:24;;;;;;;5.57;2.67;;;;;;;7.77;100.00;100311.94;7321213;19;20452;-41
2024/01/24 01:17:56;;;;;;;6.60;4.37;;;;;;;7.87;100.00;100298.72;7343345;19;21286;-42
2024/01/24 01:20:26;;;;;;;7.43;3.83;;;;;;;7.93;100.00;100278.44;7321313;19;20428;-42
2024/01/24 01:22:55;;;;;;;6.80;3.30;;;;;;;8.00;100.00;100268.44;7343083;19;20426;-41
2024/01/24 01:25:25;;;;;;;3.70;2.23;;;;;;;8.02;100.00;100271.94;7321145;19;20779;-41
2024/01/24 01:27:54;;;;;;;7.33;3.60;;;;;;;8.11;100.00;100251.81;7343117;19;20430;-41
2024/01/24 01:30:24;;;;;;;5.60;2.70;;;;;;;8.19;100.00;100235.03;7326385;19;20430;-42
2024/01/24 01:32:56;;;;;;;6.17;3.77;;;;;;;8.21;100.00;100217.13;7349564;19;21282;-40
2024/01/24 01:35:26;;;;;;;7.53;4.07;;;;;;;8.26;100.00;100205.34;7324253;19;20882;-41
2024/01/24 01:37:56;;;;;;;5.83;3.27;;;;;;;8.36;100.00;100196.31;7349516;19;20451;-41
2024/01/24 01:40:26;;;;;;;6.97;4.40;;;;;;;8.40;100.00;100193.03;7327716;19;20499;-41
2024/01/24 01:42:56;;;;;;;8.50;4.07;;;;;;;8.41;100.00;100173.38;7350115;19;20424;-42
2024/01/24 01:45:26;;;;;;;5.00;2.93;;;;;;;8.56;100.00;100158.59;7327638;19;20454;-42
2024/01/24 01:47:58;;;;;;;4.93;2.43;;;;;;;8.61;100.00;100145.94;7348628;19;20484;-41
2024/01/24 01:50:28;;;;;;;4.53;2.73;;;;;;;8.64;100.00;100144.38;7327398;19;22811;-41
2024/01/24 01:52:58;;;;;;;5.77;2.90;;;;;;;8.72;100.00;100161.78;7349175;19;20502;-41
2024/01/24 01:55:27;;;;;;;9.17;3.73;;;;;;;8.76;100.00;100146.53;7327583;19;20523;-41
2024/01/24 01:57:58;;;;;;;4.73;3.00;;;;;;;8.77;100.00;100140.56;7348544;19;20504;-42
2024/01/24 02:00:28;;;;;;;4.70;3.00;;;;;;;8.82;100.00;100139.88;7327563;19;20424;-40
2024/01/24 02:03:00;;;;;;;6.93;3.47;;;;;;;8.90;100.00;100138.47;7349780;19;20757;-41
2024/01/24 02:05:31;;;;;;;3.77;2.63;;;;;;;8.90;100.00;100138.47;7323927;19;20426;-42
2024/01/24 02:08:00;;;;;;;5.30;2.93;;;;;;;8.94;100.00;100150.66;7348245;19;20442;-41
2024/01/24 02:10:30;;;;;;;9.10;4.40;;;;;;;8.99;100.00;100136.28;7326801;19;20590;-42
2024/01/24 02:13:00;;;;;;;4.70;2.73;;;;;;;9.07;100.00;100135.69;7348978;19;20429;-41
2024/01/24 02:15:31;;;;;;;6.03;3.80;;;;;;;9.02;100.00;100149.22;7327118;19;20381;-41
2024/01/24 02:18:04;;;;;;;4.70;3.60;;;;;;;9.15;100.00;100160.00;7348533;19;20927;-42
2024/01/24 02:20:34;;;;;;;3.70;2.13;;;;;;;9.17;100.00;100160.91;7327571;19;20438;-41
2024/01/24 02:23:04;;;;;;;4.63;3.13;;;;;;;9.24;100.00;100164.63;7349687;19;20427;-40
2024/01/24 02:25:36;;;;;;;3.73;2.60;;;;;;;9.29;100.00;100161.38;7327653;19;20411;-41
2024/01/24 02:28:06;;;;;;;8.37;4.70;;;;;;;9.35;100.00;100158.19;7349725;19;20434;-41
2024/01/24 02:30:36;;;;;;;10.50;2.43;;;;;;;9.37;100.00;100183.97;7326575;19;20418;-41
2024/01/24 02:33:06;;;;;;;4.73;3.10;;;;;;;9.37;100.00;100181.38;7348561;19;21035;-43
2024/01/24 02:35:36;;;;;;;3.70;2.60;;;;;;;9.34;100.00;100182.19;7327297;19;20400;-41
2024/01/24 02:38:06;;;;;;;8.30;4.80;;;;;;;9.37;100.00;100183.97;7348479;19;20505;-41
2024/01/24 02:40:38;;;;;;;6.57;2.93;;;;;;;9.36;100.00;100208.84;7326352;19;20523;-41
2024/01/24 02:43:08;;;;;;;6.60;3.83;;;;;;;9.40;100.00;100222.72;7348974;19;20485;-41
2024/01/24 02:45:38;;;;;;;7.70;3.07;;;;;;;9.43;100.00;100249.47;7327681;19;20462;-41
2024/01/24 02:48:08;;;;;;;7.10;4.70;;;;;;;9.43;100.00;100240.84;7348276;19;20431;-41
2024/01/24 02:50:38;;;;;;;3.53;2.97;;;;;;;9.47;100.00;100221.25;7326134;19;20430;-41
2024/01/24 02:53:07;;;;;;;5.30;3.40;;;;;;;9.53;100.00;100201.75;7348679;19;20518;-42
2024/01/24 02:55:40;;;;;;;6.33;3.00;;;;;;;9.57;100.00;100184.72;7327193;19;20486;-41
2024/01/24 02:58:09;;;;;;;2.10;1.47;;;;;;;9.62;100.00;100175.47;7331928;19;21007;-42
2024/01/24 03:00:39;;;;;;;8.00;2.20;;;;;;;9.71;100.00;100177.50;7347168;19;20439;-42
2024/01/24 03:03:09;;;;;;;4.63;2.57;;;;;;;9.72;100.00;100174.09;7342218;19;20503;-39
2024/01/24 03:05:38;;;;;;;2.13;1.47;;;;;;;9.73;100.00;100163.84;7348247;19;20782;-41
2024/01/24 03:08:09;;;;;;;1.97;1.53;;;;;;;9.77;100.00;100146.81;7347604;19;20470;-41
2024/01/24 03:10:41;;;;;;;1.40;1.00;;;;;;;9.76;100.00;100151.88;7326415;19;20436;-41
2024/01/24 03:13:11;;;;;;;2.97;1.87;;;;;;;9.72;100.00;100159.53;7325503;19;20844;-41
2024/01/24 03:15:40;;;;;;;1.87;0.97;;;;;;;9.71;100.00;100165.47;7347258;19;20484;-41
2024/01/24 03:18:10;;;;;;;1.80;1.03;;;;;;;9.71;100.00;100156.88;7325058;19;20975;-42
2024/01/24 03:20:40;;;;;;;2.67;1.50;;;;;;;9.72;100.00;100148.31;7347074;19;20827;-40
2024/01/24 03:23:12;;;;;;;1.97;1.10;;;;;;;9.67;100.00;100155.00;7331595;19;20468;-42
2024/01/24 03:25:44;;;;;;;1.30;0.80;;;;;;;9.67;100.00;100132.72;7347370;19;20483;-41
2024/01/24 03:28:14;;;;;;;1.30;0.70;;;;;;;9.72;100.00;100133.75;7323956;19;20440;-41
2024/01/24 03:30:43;;;;;;;2.17;0.97;;;;;;;9.70;100.00;100124.22;7347289;19;20433;-42
2024/01/24 03:33:13;;;;;;;7.63;0.93;;;;;;;9.82;100.00;100124.66;7323621;19;20432;-41
2024/01/24 03:35:43;;;;;;;2.50;0.60;;;;;;;9.80;100.00;100164.94;7347379;19;20787;-40
2024/01/24 03:38:12;;;;;;;1.90;0.90;;;;;;;9.62;100.00;100151.38;7324217;19;20430;-40
2024/01/24 03:40:45;;;;;;;10.33;1.20;;;;;;;9.52;100.00;100156.22;7345322;19;20447;-40
2024/01/24 03:43:15;;;;;;;2.57;0.80;;;;;;;9.39;100.00;100234.69;7324198;19;20501;-42
2024/01/24 03:45:44;;;;;;;5.57;1.60;;;;;;;9.12;100.00;100242.25;7346525;19;20793;-42
2024/01/24 03:48:14;;;;;;;2.10;1.00;;;;;;;8.94;100.00;100274.16;7323336;19;20441;-40
2024/01/24 03:50:44;;;;;;;6.20;1.33;;;;;;;8.87;100.00;100277.28;7345068;19;21003;-40
2024/01/24 03:53:14;;;;;;;2.50;0.97;;;;;;;8.81;100.00;100284.75;7321514;19;20532;-40
2024/01/24 03:55:46;;;;;;;5.43;1.27;;;;;;;8.82;100.00;100320.81;7345804;19;20971;-41
2024/01/24 03:58:16;;;;;;;2.73;1.13;;;;;;;8.73;100.00;100367.59;7323553;19;20501;-41
2024/01/24 04:00:45;;;;;;;5.47;1.37;;;;;;;8.67;100.00;100398.19;7345202;19;20983;-41
2024/01/24 04:03:15;;;;;;;12.40;3.53;;;;;;;8.68;100.00;100425.69;7323135;19;20965;-41
2024/01/24 04:05:45;;;;;;;8.10;2.40;;;;;;;8.73;100.00;100446.47;7346721;19;20431;-41
2024/01/24 04:08:14;;;;;;;4.83;1.60;;;;;;;8.75;100.00;100455.13;7322467;19;20427;-41
2024/01/24 04:10:47;;;;;;;4.83;0.70;;;;;;;8.80;100.00;100460.47;7345518;19;21082;-41
2024/01/24 04:13:16;;;;;;;5.47;0.43;;;;;;;8.78;100.00;100433.00;7323007;19;20430;-42
2024/01/24 04:15:46;;;;;;;5.10;1.87;;;;;;;8.73;100.00;100426.75;7346371;19;20821;-41
2024/01/24 04:18:16;;;;;;;10.90;1.23;;;;;;;8.84;100.00;100408.34;7323996;19;20424;-41
2024/01/24 04:20:45;;;;;;;5.63;0.80;;;;;;;8.76;100.00;100365.16;7345948;19;20422;-42
2024/01/24 04:23:15;;;;;;;5.97;1.43;;;;;;;8.72;100.00;100334.13;7323524;19;20430;-41
2024/01/24 04:25:49;;;;;;;4.00;1.07;;;;;;;8.77;100.00;100323.19;7345647;19;20424;-41
2024/01/24 04:28:18;;;;;;;8.13;1.10;;;;;;;8.76;100.00;100272.56;7324042;19;20431;-43
2024/01/24 04:30:48;;;;;;;8.10;1.13;;;;;;;8.80;100.00;100228.94;7346779;19;20826;-46
2024/01/24 04:33:18;;;;;;;3.67;1.10;;;;;;;8.80;100.00;100216.97;7323152;19;20423;-41
2024/01/24 04:35:47;;;;;;;8.00;1.43;;;;;;;8.76;100.00;100235.66;7346059;19;20503;-44
2024/01/24 04:38:17;;;;;;;4.73;0.80;;;;;;;8.71;100.00;100320.38;7323137;19;20424;-40
2024/01/24 04:40:49;;;;;;;3.77;1.00;;;;;;;8.67;100.00;100369.03;7344648;19;20430;-40
2024/01/24 04:43:19;;;;;;;6.57;1.50;;;;;;;8.67;100.00;100408.47;7322385;19;20430;-40
2024/01/24 04:45:49;;;;;;;1.60;0.60;;;;;;;8.69;100.00;100419.75;7345415;19;20413;-41
2024/01/24 04:48:18;;;;;;;3.83;0.80;;;;;;;8.71;100.00;100425.81;7321947;19;20420;-40
2024/01/24 04:50:48;;;;;;;13.53;2.10;;;;;;;8.71;100.00;100388.94;7343309;19;20432;-41
2024/01/24 04:53:19;;;;;;;11.20;2.10;;;;;;;8.76;100.00;100418.31;7322608;19;20462;-42
2024/01/24 04:55:51;;;;;;;9.23;1.70;;;;;;;8.73;100.00;100393.31;7344149;19;20402;-42
2024/01/24 04:58:21;;;;;;;1.80;0.80;;;;;;;8.67;100.00;100387.91;7321964;19;20505;-41
2024/01/24 05:00:50;;;;;;;14.93;2.23;;;;;;;8.66;100.00;100367.28;7343544;19;20787;-41
2024/01/24 05:03:21;;;;;;;10.23;1.70;;;;;;;8.72;100.00;100364.97;7323496;19;20428;-41
2024/01/24 05:05:50;;;;;;;18.90;1.50;;;;;;;8.75;100.00;100360.84;7351492;19;20433;-41
2024/01/24 05:08:32;;;;;;;6.27;1.30;;;;;;;8.76;100.00;100336.88;7328809;19;20406;-41
2024/01/24 05:11:05;;;;;;;16.37;1.70;;;;;;;8.75;100.00;100326.50;7350545;19;20456;-45
2024/01/24 05:13:36;;;;;;;11.00;1.60;;;;;;;8.78;100.00;100312.09;7330287;19;20477;-42
2024/01/24 05:16:06;;;;;;;4.80;1.70;;;;;;;8.77;100.00;100297.47;7351471;19;21029;-42
2024/01/24 05:18:36;;;;;;;18.37;1.97;;;;;;;8.80;100.00;100259.81;7331225;19;20422;-43
2024/01/24 05:21:06;;;;;;;11.27;2.00;;;;;;;8.80;100.00;100229.84;7350714;19;20448;-41
2024/01/24 05:23:36;;;;;;;15.13;1.57;;;;;;;8.80;100.00;100203.22;7331298;19;20403;-43
2024/01/24 05:26:09;;;;;;;20.33;3.77;;;;;;;8.78;100.00;100165.47;7351702;19;20426;-44
2024/01/24 05:28:40;;;;;;;10.20;2.00;;;;;;;8.81;100.00;100102.13;7330936;19;20391;-44
2024/01/24 05:31:10;;;;;;;10.03;1.60;;;;;;;8.82;100.00;100040.41;7337815;19;20476;-45
2024/01/24 05:33:39;;;;;;;10.73;2.23;;;;;;;8.83;100.00;99962.44;7350487;19;20396;-42
2024/01/24 05:36:09;;;;;;;6.27;1.70;;;;;;;8.82;100.00;99945.25;7344382;19;20508;-41
2024/01/24 05:38:39;;;;;;;12.10;2.20;;;;;;;8.86;100.00;99899.91;7351042;19;20501;-43
2024/01/24 05:41:11;;;;;;;22.23;3.43;;;;;;;8.86;100.00;99889.63;7348548;19;20854;-38
2024/01/24 05:43:41;;;;;;;16.13;3.43;;;;;;;8.78;100.00;99890.25;7351463;19;20396;-42
2024/01/24 05:46:11;;;;;;;20.10;3.10;;;;;;;8.91;100.00;99894.13;7329899;19;20973;-43
2024/01/24 05:48:41;;;;;;;13.47;2.13;;;;;;;8.94;100.00;99877.94;7352137;19;20396;-44
2024/01/24 05:51:10;;;;;;;18.13;3.07;;;;;;;8.97;100.00;99888.31;7329359;19;20861;-44
2024/01/24 05:53:42;;;;;;;15.77;2.77;;;;;;;9.16;100.00;99868.34;7350856;19;20404;-44
2024/01/24 05:56:14;;;;;;;12.97;2.13;;;;;;;9.29;100.00;99885.09;7327576;19;20443;-43
2024/01/24 05:58:44;;;;;;;5.53;1.40;;;;;;;9.36;100.00;99891.28;7350455;19;20421;-46
2024/01/24 06:01:14;;;;;;;13.80;2.30;;;;;;;9.37;100.00;99905.91;7325680;19;20534;-42
2024/01/24 06:03:43;;;;;;;7.77;2.37;;;;;;;9.43;100.00;99918.97;7350495;19;21020;-41
2024/01/24 06:06:13;;;;;;;8.93;3.43;;;;;;;9.53;100.00;99915.91;7326317;19;21046;-44
2024/01/24 06:08:44;;;;;;;9.77;1.97;;;;;;;9.51;100.00;99912.41;7349438;19;20434;-42
2024/01/24 06:11:16;;;;;;;9.90;2.20;;;;;;;9.18;100.00;99923.34;7326213;19;20813;-41
2024/01/24 06:13:47;;;;;;;8.80;1.93;;;;;;;8.99;100.00;99953.59;7349902;19;20412;-41
2024/01/24 06:16:17;;;;;;;5.30;2.00;;;;;;;8.84;100.00;99940.16;7324455;19;20455;-43
2024/01/24 06:18:47;;;;;;;8.00;2.97;;;;;;;8.76;100.00;99948.47;7349941;19;20427;-42
2024/01/24 06:21:17;;;;;;;19.37;3.00;;;;;;;8.60;100.00;99964.16;7325559;19;20530;-42
2024/01/24 06:23:46;;;;;;;9.97;2.00;;;;;;;8.45;100.00;99984.97;7349407;19;20416;-41
2024/01/24 06:26:19;;;;;;;17.93;3.07;;;;;;;8.53;100.00;99977.59;7326281;19;20504;-43
2024/01/24 06:28:48;;;;;;;16.37;1.90;;;;;;;8.62;100.00;99953.09;7349816;19;20488;-41
2024/01/24 06:31:18;;;;;;;8.80;1.80;;;;;;;8.70;100.00;99940.53;7320594;19;20434;-39
2024/01/24 06:33:48;;;;;;;10.67;2.70;;;;;;;8.75;100.00;99928.72;7348257;19;20399;-40
2024/01/24 06:36:18;;;;;;;20.63;3.23;;;;;;;8.85;100.00;99952.19;7326317;19;20453;-42
2024/01/24 06:38:47;;;;;;;13.93;1.93;;;;;;;8.88;100.00;99952.31;7350369;19;20404;-39
2024/01/24 06:41:20;;;;;;;15.60;1.87;;;;;;;8.88;100.00;99960.03;7326477;19;20788;-43
2024/01/24 06:43:50;;;;;;;11.90;2.93;;;;;;;9.06;100.00;99970.09;7349352;19;20854;-38
2024/01/24 06:46:20;;;;;;;11.90;2.50;;;;;;;9.08;100.00;99942.72;7325725;19;20426;-38
2024/01/24 06:48:50;;;;;;;11.50;2.17;;;;;;;9.07;100.00;99934.97;7349004;19;20435;-38
2024/01/24 06:51:20;;;;;;;15.43;3.03;;;;;;;9.12;100.00;99936.00;7325463;19;20422;-39
2024/01/24 06:53:50;;;;;;;13.27;2.97;;;;;;;9.14;100.00;99957.50;7349641;19;20784;-39
2024/01/24 06:56:22;;;;;;;11.37;2.33;;;;;;;9.24;100.00;99966.41;7325135;19;21020;-40
2024/01/24 06:58:52;;;;;;;20.40;2.70;;;;;;;9.24;100.00;99985.31;7349194;19;20402;-40
2024/01/24 07:01:22;;;;;;;11.70;1.37;;;;;;;9.22;100.00;99975.78;7323085;19;20436;-41
2024/01/24 07:03:51;;;;;;;17.17;2.77;;;;;;;9.19;100.00;99992.00;7348460;19;20454;-39
2024/01/24 07:06:21;;;;;;;12.13;2.80;;;;;;;9.35;100.00;99984.81;7325062;19;20426;-42
2024/01/24 07:08:51;;;;;;;15.73;2.77;;;;;;;9.27;100.00;99994.81;7348432;19;20419;-42
2024/01/24 07:11:23;;;;;;;9.57;1.87;;;;;;;9.29;100.00;99995.78;7324820;19;20432;-40
2024/01/24 07:13:53;;;;;;;16.67;2.27;;;;;;;9.25;100.00;100002.50;7349339;19;20403;-41
2024/01/24 07:16:22;;;;;;;11.03;2.10;;;;;;;9.22;100.00;99980.94;7324583;19;20542;-40
2024/01/24 07:18:52;;;;;;;11.53;2.67;;;;;;;9.22;100.00;99983.53;7348559;19;20518;-40
2024/01/24 07:21:21;;;;;;;14.53;2.53;;;;;;;9.17;100.00;100025.41;7319060;19;20432;-40
2024/01/24 07:23:51;;;;;;;8.03;2.00;;;;;;;8.48;100.00;99960.31;7348013;19;20402;-41
2024/01/24 07:26:23;;;;;;;14.37;3.07;;;;;;;8.31;100.00;100035.88;7319075;19;20465;-40
2024/01/24 07:28:53;;;;;;;18.77;3.27;;;;;;;8.42;100.00;100001.19;7348071;19;20423;-41
2024/01/24 07:31:23;;;;;;;12.07;2.50;;;;;;;8.36;100.00;100003.53;7322422;19;20499;-39
2024/01/24 07:33:52;;;;;;;25.07;4.63;;;;;;;8.24;100.00;100007.38;7346601;19;20438;-40
2024/01/24 07:36:23;;;;;;;11.17;2.73;;;;;;;8.20;100.00;100020.06;7323315;19;20450;-40
2024/01/24 07:38:53;;;;;;;19.53;2.63;;;;;;;8.21;100.00;99998.66;7348210;19;21035;-42
2024/01/24 07:41:25;;;;;;;9.83;3.00;;;;;;;8.31;100.00;99998.19;7324112;19;20424;-43
2024/01/24 07:43:55;;;;;;;24.13;3.33;;;;;;;8.35;100.00;99978.63;7347714;19;20420;-40
2024/01/24 07:46:25;;;;;;;21.13;3.43;;;;;;;8.48;100.00;100026.25;7324381;19;20426;-41
2024/01/24 07:48:55;;;;;;;12.27;2.60;;;;;;;8.45;100.00;100016.72;7348523;19;20457;-40
2024/01/24 07:51:25;;;;;;;15.93;2.80;;;;;;;8.62;100.00;100019.97;7322782;19;21002;-40
2024/01/24 07:53:55;;;;;;;17.87;3.97;;;;;;;8.63;100.00;100037.16;7346938;19;20430;-40
2024/01/24 07:56:27;;;;;;;15.13;2.47;;;;;;;8.72;100.00;100035.75;7323075;19;20427;-43
2024/01/24 07:58:57;;;;;;;32.30;4.30;;;;;;;8.72;100.00;100022.91;7347187;19;20985;-42
2024/01/24 08:01:27;;;;;;;17.63;3.33;;;;;;;8.72;100.00;100058.91;7323195;19;20424;-40
2024/01/24 08:03:58;;;;;;;35.60;3.50;;;;;;;8.80;100.00;99994.88;7346691;19;20428;-44
2024/01/24 08:06:28;;;;;;;14.17;2.97;;;;;;;8.84;100.00;100035.34;7323202;19;20423;-40
2024/01/24 08:08:58;;;;;;;11.50;2.50;;;;;;;8.84;100.00;100050.78;7345071;19;20438;-41
2024/01/24 08:11:32;;;;;;;9.17;2.20;;;;;;;8.87;100.00;100056.03;7323035;19;20418;-43
2024/01/24 08:14:02;;;;;;;18.23;3.43;;;;;;;8.85;100.00;100073.09;7344497;19;20458;-40
2024/01/24 08:16:32;;;;;;;29.10;5.23;;;;;;;8.81;100.00;100066.09;7323356;19;20401;-44
2024/01/24 08:19:02;;;;;;;14.33;2.93;;;;;;;8.82;100.00;100088.44;7340992;19;20423;-46
2024/01/24 08:21:31;;;;;;;27.47;3.20;;;;;;;8.81;100.00;100096.97;7322858;19;20414;-42
2024/01/24 08:24:01;;;;;;;16.57;3.97;;;;;;;8.85;100.00;100097.13;7345828;19;20431;-41
2024/01/24 08:26:34;;;;;;;16.03;4.27;;;;;;;8.87;100.00;100100.63;7322889;19;20392;-45
2024/01/24 08:29:03;;;;;;;12.20;2.50;;;;;;;8.81;100.00;100143.28;7345848;19;20438;-43
2024/01/24 08:31:33;;;;;;;17.07;2.83;;;;;;;8.82;100.00;100102.16;7323496;19;20983;-46
2024/01/24 08:34:02;;;;;;;20.60;4.13;;;;;;;8.83;100.00;100129.66;7344832;19;20426;-42
2024/01/24 08:36:32;;;;;;;26.63;4.53;;;;;;;8.84;100.00;100138.22;7320788;19;20509;-44
2024/01/24 08:39:03;;;;;;;14.47;3.40;;;;;;;8.85;100.00;100134.84;7347609;19;20434;-44
2024/01/24 08:41:36;;;;;;;18.30;3.67;;;;;;;8.88;100.00;100153.84;7330448;19;20411;-45
2024/01/24 08:44:06;;;;;;;15.17;3.60;;;;;;;8.87;100.00;100148.66;7353040;19;20437;-39
2024/01/24 08:46:35;;;;;;;23.07;4.40;;;;;;;8.82;100.00;100152.75;7330511;19;20460;-45
2024/01/24 08:49:05;;;;;;;21.77;3.27;;;;;;;8.84;100.00;100143.38;7353786;19;21018;-42
2024/01/24 08:51:35;;;;;;;16.37;3.27;;;;;;;8.82;100.00;100145.88;7329850;19;21325;-42
2024/01/24 08:54:05;;;;;;;25.53;3.33;;;;;;;8.83;100.00;100150.22;7353128;19;20431;-42
2024/01/24 08:56:40;;;;;;;22.27;2.87;;;;;;;8.85;100.00;100146.03;7329922;19;20403;-39
2024/01/24 08:59:10;;;;;;;37.17;3.40;;;;;;;8.80;100.00;100162.06;7343719;19;20430;-38
2024/01/24 09:01:39;;;;;;;22.93;3.17;;;;;;;8.80;100.00;100156.91;7349604;19;20412;-43
2024/01/24 09:04:12;;;;;;;11.80;2.30;;;;;;;8.84;100.00;100169.09;7349633;19;20431;-38
2024/01/24 09:06:42;;;;;;;16.60;3.30;;;;;;;8.86;100.00;100155.47;7347782;19;20434;-41
2024/01/24 09:09:13;;;;;;;18.50;2.90;;;;;;;8.86;100.00;100177.75;7326322;19;20447;-40
2024/01/24 09:11:47;;;;;;;29.67;4.10;;;;;;;8.86;100.00;100182.88;7351573;19;20406;-40
2024/01/24 09:14:25;;;;;;;18.80;3.40;;;;;;;8.83;100.00;100182.78;7328685;19;20824;-40
2024/01/24 09:16:55;;;;;;;26.07;4.83;;;;;;;8.81;100.00;100194.72;7351154;19;20429;-43
2024/01/24 09:19:25;;;;;;;18.27;4.07;;;;;;;8.84;100.00;100194.81;7327719;19;20426;-42
2024/01/24 09:21:54;;;;;;;10.93;2.53;;;;;;;8.82;100.00;100192.19;7351884;19;20414;-41
2024/01/24 09:24:24;;;;;;;13.33;3.27;;;;;;;8.81;100.00;100175.00;7330134;19;20811;-43
2024/01/24 09:26:57;;;;;;;13.80;2.97;;;;;;;8.80;100.00;100178.41;7351027;19;20542;-41
2024/01/24 09:29:27;;;;;;;30.40;7.23;;;;;;;8.82;100.00;100193.91;7326298;19;20426;-39
2024/01/24 09:31:57;;;;;;;23.87;4.70;;;;;;;8.86;100.00;100190.59;7350904;19;20419;-42
2024/01/24 09:34:27;;;;;;;21.23;5.20;;;;;;;8.85;100.00;100222.31;7326355;19;20423;-39
2024/01/24 09:36:57;;;;;;;19.90;6.00;;;;;;;8.93;100.00;100210.66;7351133;19;20451;-42
2024/01/24 09:39:27;;;;;;;18.03;3.60;;;;;;;8.88;100.00;100217.28;7326913;19;20773;-40
2024/01/24 09:42:00;;;;;;;23.80;4.37;;;;;;;8.85;100.00;100212.00;7351294;19;20500;-41
2024/01/24 09:44:34;;;;;;;23.43;6.17;;;;;;;8.85;100.00;100223.19;7327985;19;20389;-40
2024/01/24 09:47:04;;;;;;;24.23;5.13;;;;;;;8.81;100.00;100207.59;7348956;19;20495;-42
2024/01/24 09:49:36;;;;;;;27.27;5.90;;;;;;;8.71;100.00;100214.91;7326003;19;20396;-40
2024/01/24 09:52:07;;;;;;;18.67;4.77;;;;;;;8.82;100.00;100217.91;7345181;19;20430;-42
2024/01/24 09:54:38;;;;;;;12.63;3.33;;;;;;;8.74;100.00;100224.44;7329421;19;20404;-42
2024/01/24 09:57:11;;;;;;;16.23;3.40;;;;;;;8.66;100.00;100215.56;7349899;19;20832;-40
2024/01/24 09:59:40;;;;;;;17.00;2.10;;;;;;;8.50;100.00;100215.75;7328189;19;20406;-43
2024/01/24 10:02:11;;;;;;;17.00;2.23;;;;;;;8.57;100.00;100210.91;7338261;19;20430;-39
2024/01/24 10:04:41;;;;;;;17.03;2.70;;;;;;;8.53;100.00;100239.88;7349579;19;20470;-40
2024/01/24 10:07:11;;;;;;;21.23;3.23;;;;;;;8.56;100.00;100193.72;7332961;19;20507;-42
2024/01/24 10:09:40;;;;;;;13.07;2.73;;;;;;;8.57;100.00;100221.19;7349699;19;20961;-39
2024/01/24 10:12:13;;;;;;;30.37;5.67;;;;;;;8.62;100.00;100219.69;7333685;19;20515;-39
2024/01/24 10:14:43;;;;;;;12.80;1.87;;;;;;;8.63;100.00;100217.16;7349768;19;20839;-40
2024/01/24 10:17:13;;;;;;;18.03;3.03;;;;;;;8.68;100.00;100234.50;7327495;19;20481;-39
2024/01/24 10:19:43;;;;;;;8.90;2.23;;;;;;;8.64;100.00;100233.47;7349940;19;20406;-39
2024/01/24 10:22:13;;;;;;;13.93;3.70;;;;;;;8.66;100.00;100246.41;7327438;19;20431;-38
2024/01/24 10:24:43;;;;;;;23.03;3.63;;;;;;;8.67;100.00;100223.31;7348546;19;20470;-42
2024/01/24 10:27:16;;;;;;;20.30;3.63;;;;;;;8.62;100.00;100229.97;7326138;19;20420;-42
2024/01/24 10:29:46;;;;;;;18.50;3.37;;;;;;;8.52;100.00;100228.72;7349522;19;20414;-41
2024/01/24 10:32:16;;;;;;;15.77;2.87;;;;;;;8.42;100.00;100241.97;7328724;19;20455;-42
2024/01/24 10:34:47;;;;;;;19.83;2.93;;;;;;;8.37;100.00;100234.06;7347060;19;20765;-40
2024/01/24 10:37:19;;;;;;;20.13;2.90;;;;;;;8.35;100.00;100245.94;7326672;19;20780;-41
2024/01/24 10:39:49;;;;;;;19.73;3.73;;;;;;;8.41;100.00;100207.66;7349535;19;20411;-40
2024/01/24 10:42:22;;;;;;;16.00;2.50;;;;;;;8.39;100.00;100183.59;7326622;19;20515;-40
2024/01/24 10:44:54;;;;;;;23.47;2.93;;;;;;;8.48;100.00;100212.25;7348085;19;20430;-41
2024/01/24 10:47:24;;;;;;;12.27;2.10;;;;;;;8.47;100.00;100246.47;7325322;19;20436;-40
2024/01/24 10:49:54;;;;;;;10.93;2.67;;;;;;;8.49;100.00;100231.13;7349244;19;20439;-40
2024/01/24 10:52:24;;;;;;;16.63;3.43;;;;;;;8.44;100.00;100261.78;7327235;19;20443;-38
2024/01/24 10:54:55;;;;;;;19.13;4.40;;;;;;;8.36;100.00;100258.88;7341513;19;20400;-40
2024/01/24 10:57:28;;;;;;;15.63;2.87;;;;;;;8.23;100.00;100244.63;7325380;19;21255;-40
2024/01/24 10:59:59;;;;;;;22.33;2.80;;;;;;;8.13;100.00;100241.56;7345586;19;20484;-40
2024/01/24 11:02:28;;;;;;;72.80;24.13;;;;;;;8.50;100.00;100228.63;7324476;19;20426;-43
2024/01/24 11:04:59;;;;;;;73.93;22.57;;;;;;;8.43;100.00;100229.19;7348528;19;20443;-41
2024/01/24 11:07:33;;;;;;;34.77;8.57;;;;;;;8.20;100.00;100226.50;7324868;19;20447;-43
2024/01/24 11:10:14;;;;;;;43.90;12.53;;;;;;;8.33;100.00;100211.59;7347159;19;20472;-41
2024/01/24 11:12:47;;;;;;;15.70;1.97;;;;;;;7.66;100.00;100229.28;7327087;19;20862;-40
2024/01/24 11:15:17;;;;;;;18.97;2.70;;;;;;;7.52;100.00;100249.19;7325353;19;20518;-40
2024/01/24 11:17:47;;;;;;;19.13;3.37;;;;;;;7.22;100.00;100239.28;7347191;19;20429;-40
2024/01/24 11:20:22;;;;;;;16.97;2.60;;;;;;;6.85;100.00;100252.09;7324010;19;20524;-42
2024/01/24 11:22:52;;;;;;;8.03;1.50;;;;;;;6.45;100.00;100265.47;7343069;19;20435;-42
2024/01/24 11:25:40;;;;;;;12.03;3.40;;;;;;;6.41;100.00;100259.31;7322566;19;20519;-40
2024/01/24 11:28:12;;;;;;;8.23;2.40;;;;;;;6.39;100.00;100260.03;7345376;19;20433;-40
2024/01/24 11:30:42;;;;;;;31.73;6.17;;;;;;;6.70;100.00;100266.69;7346596;19;20451;-42
2024/01/24 11:33:18;;;;;;;40.80;11.40;;;;;;;6.85;100.00;100295.69;7323457;19;20426;-40
2024/01/24 11:35:50;;;;;;;19.57;3.60;;;;;;;6.51;100.00;100252.09;7346439;19;20429;-42